sensor_id;sensor_type;location;lat;lon;timestamp;temperature;humidity
9107;DHT22;4589;48.690;8.952;2024-03-23T00:51:47;5.30;99.90
9107;DHT22;4589;48.690;8.952;2024-03-23T00:56:39;5.30;99.90
9107;DHT22;4589;48.690;8.952;2024-03-23T01:01:30;5.30;99.90
9107;DHT22;4589;48.690;8.952;2024-03-23T01:06:21;5.30;99.90
9107;DHT22;4589;48.690;8.952;2024-03-23T01:16:05;5.20;99.90
9107;DHT22;4589;48.690;8.952;2024-03-23T01:18:31;5.30;99.90
9107;DHT22;4589;48.690;8.952;2024-03-23T01:20:56;5.60;99.90
9107;DHT22;4589;48.690;8.952;2024-03-23T01:25:54;6.40;99.90
9107;DHT22;4589;48.690;8.952;2024-03-23T01:28:20;6.80;99.90
9107;DHT22;4589;48.690;8.952;2024-03-23T01:35:38;7.20;99.90
9107;DHT22;4589;48.690;8.952;2024-03-23T01:38:04;7.50;99.90
9107;DHT22;4589;48.690;8.952;2024-03-23T01:40:29;7.80;99.90
9107;DHT22;4589;48.690;8.952;2024-03-23T01:43:05;7.80;99.90
9107;DHT22;4589;48.690;8.952;2024-03-23T01:45:31;8.00;99.90
9107;DHT22;4589;48.690;8.952;2024-03-23T01:47:58;8.00;99.90
9107;DHT22;4589;48.690;8.952;2024-03-23T01:50:24;8.00;99.90
9107;DHT22;4589;48.690;8.952;2024-03-23T01:52:50;8.00;99.90
9107;DHT22;4589;48.690;8.952;2024-03-23T01:55:16;7.90;99.90
9107;DHT22;4589;48.690;8.952;2024-03-23T01:57:42;7.80;99.90
9107;DHT22;4589;48.690;8.952;2024-03-23T02:00:08;7.80;99.90
9107;DHT22;4589;48.690;8.952;2024-03-23T02:02:35;7.90;99.90
9107;DHT22;4589;48.690;8.952;2024-03-23T02:05:00;8.00;99.90
9107;DHT22;4589;48.690;8.952;2024-03-23T02:09:52;8.10;99.90
9107;DHT22;4589;48.690;8.952;2024-03-23T02:12:18;8.10;99.90
9107;DHT22;4589;48.690;8.952;2024-03-23T02:14:44;8.10;99.90
9107;DHT22;4589;48.690;8.952;2024-03-23T02:17:10;8.00;99.90
9107;DHT22;4589;48.690;8.952;2024-03-23T02:19:35;7.90;99.90
9107;DHT22;4589;48.690;8.952;2024-03-23T02:22:01;7.80;99.90
9107;DHT22;4589;48.690;8.952;2024-03-23T02:24:28;7.60;99.90
9107;DHT22;4589;48.690;8.952;2024-03-23T02:26:54;7.60;99.90
9107;DHT22;4589;48.690;8.952;2024-03-23T02:29:20;7.50;99.90
9107;DHT22;4589;48.690;8.952;2024-03-23T02:31:46;7.50;99.90
9107;DHT22;4589;48.690;8.952;2024-03-23T02:34:11;7.50;99.90
9107;DHT22;4589;48.690;8.952;2024-03-23T02:41:29;7.20;99.90
9107;DHT22;4589;48.690;8.952;2024-03-23T02:43:54;7.20;99.90
9107;DHT22;4589;48.690;8.952;2024-03-23T02:46:20;7.10;99.90
9107;DHT22;4589;48.690;8.952;2024-03-23T02:48:48;7.10;99.90
9107;DHT22;4589;48.690;8.952;2024-03-23T02:53:40;6.90;99.90
9107;DHT22;4589;48.690;8.952;2024-03-23T02:56:06;6.90;99.90
9107;DHT22;4589;48.690;8.952;2024-03-23T02:58:32;6.80;99.90
9107;DHT22;4589;48.690;8.952;2024-03-23T03:00:58;6.70;99.90
9107;DHT22;4589;48.690;8.952;2024-03-23T03:03:24;6.90;99.90
9107;DHT22;4589;48.690;8.952;2024-03-23T03:05:55;7.10;99.90
9107;DHT22;4589;48.690;8.952;2024-03-23T03:08:21;7.20;99.90
9107;DHT22;4589;48.690;8.952;2024-03-23T03:10:46;7.30;99.90
9107;DHT22;4589;48.690;8.952;2024-03-23T03:13:12;7.40;99.90
9107;DHT22;4589;48.690;8.952;2024-03-23T03:18:03;7.40;99.90
9107;DHT22;4589;48.690;8.952;2024-03-23T03:22:55;7.20;99.90
9107;DHT22;4589;48.690;8.952;2024-03-23T03:27:47;7.00;99.90
9107;DHT22;4589;48.690;8.952;2024-03-23T03:30:12;7.00;99.90
9107;DHT22;4589;48.690;8.952;2024-03-23T03:32:38;6.90;99.90
9107;DHT22;4589;48.690;8.952;2024-03-23T03:44:48;6.80;99.90
9107;DHT22;4589;48.690;8.952;2024-03-23T03:47:13;6.80;99.90
9107;DHT22;4589;48.690;8.952;2024-03-23T03:49:39;6.90;99.90
9107;DHT22;4589;48.690;8.952;2024-03-23T03:52:04;6.90;99.90
9107;DHT22;4589;48.690;8.952;2024-03-23T03:54:30;6.90;99.90
9107;DHT22;4589;48.690;8.952;2024-03-23T03:56:56;6.80;99.90
9107;DHT22;4589;48.690;8.952;2024-03-23T03:59:21;6.80;99.90
9107;DHT22;4589;48.690;8.952;2024-03-23T04:01:47;6.70;99.90
9107;DHT22;4589;48.690;8.952;2024-03-23T04:04:12;6.60;99.90
9107;DHT22;4589;48.690;8.952;2024-03-23T04:06:39;6.70;99.90
9107;DHT22;4589;48.690;8.952;2024-03-23T04:09:04;6.70;99.90
9107;DHT22;4589;48.690;8.952;2024-03-23T04:11:31;6.90;99.90
9107;DHT22;4589;48.690;8.952;2024-03-23T04:16:33;7.30;99.90
9107;DHT22;4589;48.690;8.952;2024-03-23T04:18:59;7.40;99.90
9107;DHT22;4589;48.690;8.952;2024-03-23T04:21:24;7.40;99.90
9107;DHT22;4589;48.690;8.952;2024-03-23T04:23:50;7.30;99.90
9107;DHT22;4589;48.690;8.952;2024-03-23T04:26:15;7.30;99.90
9107;DHT22;4589;48.690;8.952;2024-03-23T04:28:41;7.30;99.90
9107;DHT22;4589;48.690;8.952;2024-03-23T04:31:08;7.20;99.90
9107;DHT22;4589;48.690;8.952;2024-03-23T04:33:34;7.20;99.90
9107;DHT22;4589;48.690;8.952;2024-03-23T04:35:59;7.20;99.90
9107;DHT22;4589;48.690;8.952;2024-03-23T04:38:25;7.30;99.90
9107;DHT22;4589;48.690;8.952;2024-03-23T04:40:55;7.30;99.90
9107;DHT22;4589;48.690;8.952;2024-03-23T04:43:21;7.50;99.90
9107;DHT22;4589;48.690;8.952;2024-03-23T04:45:46;7.60;99.90
9107;DHT22;4589;48.690;8.952;2024-03-23T04:48:12;7.70;99.90
9107;DHT22;4589;48.690;8.952;2024-03-23T04:50:37;7.80;99.90
9107;DHT22;4589;48.690;8.952;2024-03-23T04:53:03;7.70;99.90
9107;DHT22;4589;48.690;8.952;2024-03-23T04:55:28;7.80;99.90
9107;DHT22;4589;48.690;8.952;2024-03-23T04:57:54;7.70;99.90
9107;DHT22;4589;48.690;8.952;2024-03-23T05:00:19;7.70;99.90
9107;DHT22;4589;48.690;8.952;2024-03-23T05:02:45;7.80;99.90
9107;DHT22;4589;48.690;8.952;2024-03-23T05:05:11;7.70;99.90
9107;DHT22;4589;48.690;8.952;2024-03-23T05:07:37;7.70;99.90
9107;DHT22;4589;48.690;8.952;2024-03-23T05:10:03;7.80;99.90
9107;DHT22;4589;48.690;8.952;2024-03-23T05:12:28;8.00;99.90
9107;DHT22;4589;48.690;8.952;2024-03-23T05:14:54;8.00;99.90
9107;DHT22;4589;48.690;8.952;2024-03-23T05:17:19;8.10;99.90
9107;DHT22;4589;48.690;8.952;2024-03-23T05:19:45;8.20;99.90
9107;DHT22;4589;48.690;8.952;2024-03-23T05:22:11;8.10;99.90
9107;DHT22;4589;48.690;8.952;2024-03-23T05:24:36;8.10;99.90
9107;DHT22;4589;48.690;8.952;2024-03-23T05:27:02;8.10;99.90
9107;DHT22;4589;48.690;8.952;2024-03-23T05:29:27;8.10;99.90
9107;DHT22;4589;48.690;8.952;2024-03-23T05:31:54;8.10;99.90
9107;DHT22;4589;48.690;8.952;2024-03-23T05:34:22;8.00;99.90
9107;DHT22;4589;48.690;8.952;2024-03-23T05:36:47;8.00;99.90
9107;DHT22;4589;48.690;8.952;2024-03-23T05:39:14;8.00;99.90
9107;DHT22;4589;48.690;8.952;2024-03-23T05:41:42;8.00;99.90
9107;DHT22;4589;48.690;8.952;2024-03-23T05:44:07;8.10;99.90
9107;DHT22;4589;48.690;8.952;2024-03-23T05:46:33;8.10;99.90
9107;DHT22;4589;48.690;8.952;2024-03-23T05:49:01;8.00;99.90
9107;DHT22;4589;48.690;8.952;2024-03-23T05:51:27;8.00;99.90
9107;DHT22;4589;48.690;8.952;2024-03-23T05:53:53;8.00;99.90
9107;DHT22;4589;48.690;8.952;2024-03-23T05:56:20;8.00;99.90
9107;DHT22;4589;48.690;8.952;2024-03-23T05:58:45;7.90;99.90
9107;DHT22;4589;48.690;8.952;2024-03-23T06:01:11;7.90;99.90
9107;DHT22;4589;48.690;8.952;2024-03-23T06:03:38;7.80;99.90
9107;DHT22;4589;48.690;8.952;2024-03-23T06:06:04;7.70;99.90
9107;DHT22;4589;48.690;8.952;2024-03-23T06:08:29;7.60;99.90
9107;DHT22;4589;48.690;8.952;2024-03-23T06:10:55;7.50;99.90
9107;DHT22;4589;48.690;8.952;2024-03-23T06:13:20;7.50;99.90
9107;DHT22;4589;48.690;8.952;2024-03-23T06:15:50;7.50;99.90
9107;DHT22;4589;48.690;8.952;2024-03-23T06:18:15;7.50;99.90
9107;DHT22;4589;48.690;8.952;2024-03-23T06:20:41;7.50;99.90
9107;DHT22;4589;48.690;8.952;2024-03-23T06:23:06;7.40;99.90
9107;DHT22;4589;48.690;8.952;2024-03-23T06:25:32;7.40;99.90
9107;DHT22;4589;48.690;8.952;2024-03-23T06:27:58;7.40;99.90
9107;DHT22;4589;48.690;8.952;2024-03-23T06:32:49;7.30;99.90
9107;DHT22;4589;48.690;8.952;2024-03-23T06:35:15;7.20;99.90
9107;DHT22;4589;48.690;8.952;2024-03-23T06:37:41;7.20;99.90
9107;DHT22;4589;48.690;8.952;2024-03-23T06:40:08;7.20;99.90
9107;DHT22;4589;48.690;8.952;2024-03-23T06:42:36;7.20;99.90
9107;DHT22;4589;48.690;8.952;2024-03-23T06:45:02;7.20;99.90
9107;DHT22;4589;48.690;8.952;2024-03-23T06:47:27;7.20;99.90
9107;DHT22;4589;48.690;8.952;2024-03-23T06:49:53;7.10;99.90
9107;DHT22;4589;48.690;8.952;2024-03-23T06:54:44;7.10;99.90
9107;DHT22;4589;48.690;8.952;2024-03-23T06:57:11;7.20;99.90
9107;DHT22;4589;48.690;8.952;2024-03-23T06:59:37;7.30;99.90
9107;DHT22;4589;48.690;8.952;2024-03-23T07:02:04;7.30;99.90
9107;DHT22;4589;48.690;8.952;2024-03-23T07:04:30;7.30;99.90
9107;DHT22;4589;48.690;8.952;2024-03-23T07:06:56;7.40;99.90
9107;DHT22;4589;48.690;8.952;2024-03-23T07:09:21;7.50;99.90
9107;DHT22;4589;48.690;8.952;2024-03-23T07:11:53;7.70;99.90
9107;DHT22;4589;48.690;8.952;2024-03-23T07:14:18;7.70;99.90
9107;DHT22;4589;48.690;8.952;2024-03-23T07:16:44;7.70;99.90
9107;DHT22;4589;48.690;8.952;2024-03-23T07:19:10;7.60;99.90
9107;DHT22;4589;48.690;8.952;2024-03-23T07:21:35;7.60;99.90
9107;DHT22;4589;48.690;8.952;2024-03-23T07:24:01;7.60;99.90
9107;DHT22;4589;48.690;8.952;2024-03-23T07:28:52;7.60;99.90
9107;DHT22;4589;48.690;8.952;2024-03-23T07:31:19;7.60;99.90
9107;DHT22;4589;48.690;8.952;2024-03-23T07:33:46;7.60;99.90
9107;DHT22;4589;48.690;8.952;2024-03-23T07:36:12;7.60;99.90
9107;DHT22;4589;48.690;8.952;2024-03-23T07:38:41;7.40;99.90
9107;DHT22;4589;48.690;8.952;2024-03-23T07:41:11;7.30;99.90
9107;DHT22;4589;48.690;8.952;2024-03-23T07:43:38;7.30;99.90
9107;DHT22;4589;48.690;8.952;2024-03-23T07:46:04;7.30;99.90
9107;DHT22;4589;48.690;8.952;2024-03-23T07:48:30;7.20;99.90
9107;DHT22;4589;48.690;8.952;2024-03-23T07:51:03;7.20;99.90
9107;DHT22;4589;48.690;8.952;2024-03-23T07:53:30;7.30;99.90
9107;DHT22;4589;48.690;8.952;2024-03-23T07:55:58;7.20;99.90
9107;DHT22;4589;48.690;8.952;2024-03-23T07:58:24;7.20;99.90
9107;DHT22;4589;48.690;8.952;2024-03-23T08:00:50;7.40;99.90
9107;DHT22;4589;48.690;8.952;2024-03-23T08:05:42;7.30;99.90
9107;DHT22;4589;48.690;8.952;2024-03-23T08:08:07;7.20;99.90
9107;DHT22;4589;48.690;8.952;2024-03-23T08:10:33;7.20;99.90
9107;DHT22;4589;48.690;8.952;2024-03-23T08:12:58;7.20;99.90
9107;DHT22;4589;48.690;8.952;2024-03-23T08:15:24;7.30;99.90
9107;DHT22;4589;48.690;8.952;2024-03-23T08:17:50;7.40;99.90
9107;DHT22;4589;48.690;8.952;2024-03-23T08:20:15;8.10;99.90
9107;DHT22;4589;48.690;8.952;2024-03-23T08:22:41;8.90;99.90
9107;DHT22;4589;48.690;8.952;2024-03-23T08:25:07;9.10;99.90
9107;DHT22;4589;48.690;8.952;2024-03-23T08:27:32;9.10;99.90
9107;DHT22;4589;48.690;8.952;2024-03-23T08:34:50;8.50;99.90
9107;DHT22;4589;48.690;8.952;2024-03-23T08:37:16;8.50;99.90
9107;DHT22;4589;48.690;8.952;2024-03-23T08:39:43;8.50;99.90
9107;DHT22;4589;48.690;8.952;2024-03-23T08:42:09;8.70;99.90
9107;DHT22;4589;48.690;8.952;2024-03-23T08:44:34;9.10;99.90
9107;DHT22;4589;48.690;8.952;2024-03-23T08:47:01;9.20;99.90
9107;DHT22;4589;48.690;8.952;2024-03-23T08:49:26;8.90;99.90
9107;DHT22;4589;48.690;8.952;2024-03-23T08:51:52;8.60;99.90
9107;DHT22;4589;48.690;8.952;2024-03-23T08:54:17;8.40;99.90
9107;DHT22;4589;48.690;8.952;2024-03-23T08:56:45;8.40;99.90
9107;DHT22;4589;48.690;8.952;2024-03-23T08:59:11;8.50;99.90
9107;DHT22;4589;48.690;8.952;2024-03-23T09:01:36;8.30;99.90
9107;DHT22;4589;48.690;8.952;2024-03-23T09:04:03;8.10;99.90
9107;DHT22;4589;48.690;8.952;2024-03-23T09:06:29;8.00;99.90
9107;DHT22;4589;48.690;8.952;2024-03-23T09:08:55;8.40;99.90
9107;DHT22;4589;48.690;8.952;2024-03-23T09:11:20;9.30;99.90
9107;DHT22;4589;48.690;8.952;2024-03-23T09:13:46;10.60;99.90
9107;DHT22;4589;48.690;8.952;2024-03-23T09:16:11;11.10;99.90
9107;DHT22;4589;48.690;8.952;2024-03-23T09:18:38;11.00;99.90
9107;DHT22;4589;48.690;8.952;2024-03-23T09:21:11;10.70;99.90
9107;DHT22;4589;48.690;8.952;2024-03-23T09:23:37;10.70;99.90
9107;DHT22;4589;48.690;8.952;2024-03-23T09:26:05;11.40;99.90
9107;DHT22;4589;48.690;8.952;2024-03-23T09:28:33;11.00;99.90
9107;DHT22;4589;48.690;8.952;2024-03-23T09:31:06;10.50;99.90
9107;DHT22;4589;48.690;8.952;2024-03-23T09:33:33;10.40;99.90
9107;DHT22;4589;48.690;8.952;2024-03-23T09:36:03;10.10;99.90
9107;DHT22;4589;48.690;8.952;2024-03-23T09:43:21;9.60;99.90
9107;DHT22;4589;48.690;8.952;2024-03-23T09:45:46;9.40;99.90
9107;DHT22;4589;48.690;8.952;2024-03-23T09:48:12;9.50;99.90
9107;DHT22;4589;48.690;8.952;2024-03-23T09:50:42;9.70;99.90
9107;DHT22;4589;48.690;8.952;2024-03-23T09:53:10;10.10;99.90
9107;DHT22;4589;48.690;8.952;2024-03-23T09:55:37;11.20;99.90
9107;DHT22;4589;48.690;8.952;2024-03-23T09:58:04;12.70;99.90
9107;DHT22;4589;48.690;8.952;2024-03-23T10:00:34;13.10;99.90
9107;DHT22;4589;48.690;8.952;2024-03-23T10:02:59;13.10;99.90
9107;DHT22;4589;48.690;8.952;2024-03-23T10:05:30;12.70;99.90
9107;DHT22;4589;48.690;8.952;2024-03-23T10:08:20;12.70;99.90
9107;DHT22;4589;48.690;8.952;2024-03-23T10:10:46;12.30;99.90
9107;DHT22;4589;48.690;8.952;2024-03-23T10:13:24;12.10;99.90
9107;DHT22;4589;48.690;8.952;2024-03-23T10:15:58;12.80;99.90
9107;DHT22;4589;48.690;8.952;2024-03-23T10:18:25;12.50;99.90
9107;DHT22;4589;48.690;8.952;2024-03-23T10:21:09;11.80;99.90
9107;DHT22;4589;48.690;8.952;2024-03-23T10:23:40;12.90;99.90
9107;DHT22;4589;48.690;8.952;2024-03-23T10:29:00;10.90;99.90
9107;DHT22;4589;48.690;8.952;2024-03-23T10:31:29;10.60;99.90
9107;DHT22;4589;48.690;8.952;2024-03-23T10:33:55;10.50;99.90
9107;DHT22;4589;48.690;8.952;2024-03-23T10:36:23;10.10;99.90
9107;DHT22;4589;48.690;8.952;2024-03-23T10:38:50;9.80;99.90
9107;DHT22;4589;48.690;8.952;2024-03-23T10:43:44;8.70;99.90
9107;DHT22;4589;48.690;8.952;2024-03-23T10:48:36;6.40;99.90
9107;DHT22;4589;48.690;8.952;2024-03-23T10:53:28;5.50;99.90
9107;DHT22;4589;48.690;8.952;2024-03-23T10:55:55;5.40;99.90
9107;DHT22;4589;48.690;8.952;2024-03-23T10:58:28;5.40;99.90
9107;DHT22;4589;48.690;8.952;2024-03-23T11:00:54;5.60;99.90
9107;DHT22;4589;48.690;8.952;2024-03-23T11:03:31;5.80;99.90
9107;DHT22;4589;48.690;8.952;2024-03-23T11:05:56;6.00;99.90
9107;DHT22;4589;48.690;8.952;2024-03-23T11:08:35;6.40;99.90
9107;DHT22;4589;48.690;8.952;2024-03-23T11:11:20;7.10;99.90
9107;DHT22;4589;48.690;8.952;2024-03-23T11:13:48;7.50;99.90
9107;DHT22;4589;48.690;8.952;2024-03-23T11:16:16;7.80;99.90
9107;DHT22;4589;48.690;8.952;2024-03-23T11:18:42;8.70;99.90
9107;DHT22;4589;48.690;8.952;2024-03-23T11:21:09;9.00;99.90
9107;DHT22;4589;48.690;8.952;2024-03-23T11:23:35;8.80;99.90
9107;DHT22;4589;48.690;8.952;2024-03-23T11:28:26;9.30;99.90
9107;DHT22;4589;48.690;8.952;2024-03-23T11:30:52;9.50;99.90
9107;DHT22;4589;48.690;8.952;2024-03-23T11:35:44;10.50;99.90
9107;DHT22;4589;48.690;8.952;2024-03-23T11:38:16;10.50;99.90
9107;DHT22;4589;48.690;8.952;2024-03-23T11:40:49;9.80;99.90
9107;DHT22;4589;48.690;8.952;2024-03-23T11:43:17;9.50;99.90
9107;DHT22;4589;48.690;8.952;2024-03-23T11:48:11;9.50;99.90
9107;DHT22;4589;48.690;8.952;2024-03-23T11:50:38;9.40;99.90
9107;DHT22;4589;48.690;8.952;2024-03-23T11:53:22;9.40;99.90
9107;DHT22;4589;48.690;8.952;2024-03-23T11:55:52;10.00;99.90
9107;DHT22;4589;48.690;8.952;2024-03-23T11:58:22;10.00;99.90
9107;DHT22;4589;48.690;8.952;2024-03-23T12:01:02;9.90;99.90
9107;DHT22;4589;48.690;8.952;2024-03-23T12:03:28;9.40;99.90
9107;DHT22;4589;48.690;8.952;2024-03-23T12:05:57;9.50;99.90
9107;DHT22;4589;48.690;8.952;2024-03-23T12:08:24;9.60;99.90
9107;DHT22;4589;48.690;8.952;2024-03-23T12:11:15;9.30;99.90
9107;DHT22;4589;48.690;8.952;2024-03-23T12:13:41;9.20;99.90
9107;DHT22;4589;48.690;8.952;2024-03-23T12:16:13;9.80;99.90
9107;DHT22;4589;48.690;8.952;2024-03-23T12:18:43;10.40;99.90
9107;DHT22;4589;48.690;8.952;2024-03-23T12:21:09;11.00;99.90
9107;DHT22;4589;48.690;8.952;2024-03-23T12:23:35;12.00;99.90
9107;DHT22;4589;48.690;8.952;2024-03-23T12:26:01;12.10;99.90
9107;DHT22;4589;48.690;8.952;2024-03-23T12:28:27;11.50;99.90
9107;DHT22;4589;48.690;8.952;2024-03-23T12:30:53;11.50;99.90
9107;DHT22;4589;48.690;8.952;2024-03-23T12:33:19;12.30;99.90
9107;DHT22;4589;48.690;8.952;2024-03-23T12:35:45;13.10;99.90
9107;DHT22;4589;48.690;8.952;2024-03-23T12:40:37;11.30;99.90
9107;DHT22;4589;48.690;8.952;2024-03-23T12:43:02;10.70;99.90
9107;DHT22;4589;48.690;8.952;2024-03-23T12:45:28;9.80;99.90
9107;DHT22;4589;48.690;8.952;2024-03-23T12:47:53;9.60;99.90
9107;DHT22;4589;48.690;8.952;2024-03-23T12:50:19;9.60;99.90
9107;DHT22;4589;48.690;8.952;2024-03-23T12:55:11;10.10;99.90
9107;DHT22;4589;48.690;8.952;2024-03-23T12:57:37;9.90;99.90
9107;DHT22;4589;48.690;8.952;2024-03-23T13:00:03;10.90;99.90
9107;DHT22;4589;48.690;8.952;2024-03-23T13:02:29;11.70;99.90
9107;DHT22;4589;48.690;8.952;2024-03-23T13:04:55;11.90;99.90
9107;DHT22;4589;48.690;8.952;2024-03-23T13:07:21;11.40;99.90
9107;DHT22;4589;48.690;8.952;2024-03-23T13:09:50;10.60;99.90
9107;DHT22;4589;48.690;8.952;2024-03-23T13:12:16;9.80;99.90
9107;DHT22;4589;48.690;8.952;2024-03-23T13:14:42;9.20;99.90
9107;DHT22;4589;48.690;8.952;2024-03-23T13:17:07;8.70;99.90
9107;DHT22;4589;48.690;8.952;2024-03-23T13:19:34;7.70;99.90
9107;DHT22;4589;48.690;8.952;2024-03-23T13:22:00;7.40;99.90
9107;DHT22;4589;48.690;8.952;2024-03-23T13:24:29;7.90;99.90
9107;DHT22;4589;48.690;8.952;2024-03-23T13:26:56;8.80;99.90
9107;DHT22;4589;48.690;8.952;2024-03-23T13:29:22;9.50;99.90
9107;DHT22;4589;48.690;8.952;2024-03-23T13:31:48;9.80;99.90
9107;DHT22;4589;48.690;8.952;2024-03-23T13:34:14;10.30;99.90
9107;DHT22;4589;48.690;8.952;2024-03-23T13:36:44;10.40;99.90
9107;DHT22;4589;48.690;8.952;2024-03-23T13:39:11;10.40;99.90
9107;DHT22;4589;48.690;8.952;2024-03-23T13:41:43;10.60;99.90
9107;DHT22;4589;48.690;8.952;2024-03-23T13:44:10;10.60;99.90
9107;DHT22;4589;48.690;8.952;2024-03-23T13:46:37;10.60;99.90
9107;DHT22;4589;48.690;8.952;2024-03-23T13:49:03;9.80;99.90
9107;DHT22;4589;48.690;8.952;2024-03-23T13:51:28;9.30;99.90
9107;DHT22;4589;48.690;8.952;2024-03-23T13:53:54;9.10;99.90
9107;DHT22;4589;48.690;8.952;2024-03-23T13:56:24;9.10;99.90
9107;DHT22;4589;48.690;8.952;2024-03-23T13:58:50;8.30;99.90
9107;DHT22;4589;48.690;8.952;2024-03-23T14:01:16;7.50;99.90
9107;DHT22;4589;48.690;8.952;2024-03-23T14:03:42;7.00;99.90
9107;DHT22;4589;48.690;8.952;2024-03-23T14:06:08;6.80;99.90
9107;DHT22;4589;48.690;8.952;2024-03-23T14:08:35;7.10;99.90
9107;DHT22;4589;48.690;8.952;2024-03-23T14:11:07;7.60;99.90
9107;DHT22;4589;48.690;8.952;2024-03-23T14:13:37;7.90;99.90
9107;DHT22;4589;48.690;8.952;2024-03-23T14:16:03;8.00;99.90
9107;DHT22;4589;48.690;8.952;2024-03-23T14:18:28;7.70;99.90
9107;DHT22;4589;48.690;8.952;2024-03-23T14:20:59;7.40;99.90
9107;DHT22;4589;48.690;8.952;2024-03-23T14:23:26;7.10;99.90
9107;DHT22;4589;48.690;8.952;2024-03-23T14:25:58;7.00;99.90
9107;DHT22;4589;48.690;8.952;2024-03-23T14:28:24;7.20;99.90
9107;DHT22;4589;48.690;8.952;2024-03-23T14:30:50;7.20;99.90
9107;DHT22;4589;48.690;8.952;2024-03-23T14:33:16;7.00;99.90
9107;DHT22;4589;48.690;8.952;2024-03-23T14:35:43;6.80;99.90
9107;DHT22;4589;48.690;8.952;2024-03-23T14:38:09;6.70;99.90
9107;DHT22;4589;48.690;8.952;2024-03-23T14:40:35;6.70;99.90
9107;DHT22;4589;48.690;8.952;2024-03-23T14:43:00;6.70;99.90
9107;DHT22;4589;48.690;8.952;2024-03-23T14:45:26;6.70;99.90
9107;DHT22;4589;48.690;8.952;2024-03-23T14:47:52;6.80;99.90
9107;DHT22;4589;48.690;8.952;2024-03-23T14:50:18;6.70;99.90
9107;DHT22;4589;48.690;8.952;2024-03-23T14:52:47;6.50;99.90
9107;DHT22;4589;48.690;8.952;2024-03-23T15:00:09;5.70;99.90
9107;DHT22;4589;48.690;8.952;2024-03-23T15:02:38;5.80;99.90
9107;DHT22;4589;48.690;8.952;2024-03-23T15:05:07;5.90;99.90
9107;DHT22;4589;48.690;8.952;2024-03-23T15:07:38;5.90;99.90
9107;DHT22;4589;48.690;8.952;2024-03-23T15:10:06;5.80;99.90
9107;DHT22;4589;48.690;8.952;2024-03-23T15:12:32;5.80;99.90
9107;DHT22;4589;48.690;8.952;2024-03-23T15:14:59;5.70;99.90
9107;DHT22;4589;48.690;8.952;2024-03-23T15:17:25;5.80;99.90
9107;DHT22;4589;48.690;8.952;2024-03-23T15:19:50;5.80;99.90
9107;DHT22;4589;48.690;8.952;2024-03-23T15:27:08;5.90;99.90
9107;DHT22;4589;48.690;8.952;2024-03-23T15:29:34;5.90;99.90
9107;DHT22;4589;48.690;8.952;2024-03-23T15:32:01;5.90;99.90
9107;DHT22;4589;48.690;8.952;2024-03-23T15:36:52;5.90;99.90
9107;DHT22;4589;48.690;8.952;2024-03-23T15:39:18;5.90;99.90
9107;DHT22;4589;48.690;8.952;2024-03-23T15:41:47;6.00;99.90
9107;DHT22;4589;48.690;8.952;2024-03-23T15:44:13;5.90;99.90
9107;DHT22;4589;48.690;8.952;2024-03-23T15:46:39;5.80;99.90
9107;DHT22;4589;48.690;8.952;2024-03-23T15:51:31;5.50;99.90
9107;DHT22;4589;48.690;8.952;2024-03-23T15:54:00;5.30;99.90
9107;DHT22;4589;48.690;8.952;2024-03-23T15:56:26;5.40;99.90
9107;DHT22;4589;48.690;8.952;2024-03-23T16:01:17;5.70;99.90
9107;DHT22;4589;48.690;8.952;2024-03-23T16:03:43;5.60;99.90
9107;DHT22;4589;48.690;8.952;2024-03-23T16:08:35;5.40;99.90
9107;DHT22;4589;48.690;8.952;2024-03-23T16:11:02;5.20;99.90
9107;DHT22;4589;48.690;8.952;2024-03-23T16:13:28;5.00;99.90
9107;DHT22;4589;48.690;8.952;2024-03-23T16:16:02;5.00;99.90
9107;DHT22;4589;48.690;8.952;2024-03-23T16:18:35;5.00;99.90
9107;DHT22;4589;48.690;8.952;2024-03-23T16:21:03;5.10;99.90
9107;DHT22;4589;48.690;8.952;2024-03-23T16:23:29;5.10;99.90
9107;DHT22;4589;48.690;8.952;2024-03-23T16:25:56;5.10;99.90
9107;DHT22;4589;48.690;8.952;2024-03-23T16:28:25;5.20;99.90
9107;DHT22;4589;48.690;8.952;2024-03-23T16:31:11;5.30;99.90
9107;DHT22;4589;48.690;8.952;2024-03-23T16:33:38;5.40;99.90
9107;DHT22;4589;48.690;8.952;2024-03-23T16:36:08;5.60;99.90
9107;DHT22;4589;48.690;8.952;2024-03-23T16:38:41;5.60;99.90
9107;DHT22;4589;48.690;8.952;2024-03-23T16:41:11;5.60;99.90
9107;DHT22;4589;48.690;8.952;2024-03-23T16:43:43;5.60;99.90
9107;DHT22;4589;48.690;8.952;2024-03-23T16:46:10;5.50;99.90
9107;DHT22;4589;48.690;8.952;2024-03-23T16:48:40;5.50;99.90
9107;DHT22;4589;48.690;8.952;2024-03-23T16:51:07;5.30;99.90
9107;DHT22;4589;48.690;8.952;2024-03-23T16:53:33;5.20;99.90
9107;DHT22;4589;48.690;8.952;2024-03-23T16:56:01;5.10;99.90
9107;DHT22;4589;48.690;8.952;2024-03-23T16:58:28;5.10;99.90
9107;DHT22;4589;48.690;8.952;2024-03-23T17:03:24;4.90;99.90
9107;DHT22;4589;48.690;8.952;2024-03-23T17:05:50;4.80;99.90
9107;DHT22;4589;48.690;8.952;2024-03-23T17:08:19;4.70;99.90
9107;DHT22;4589;48.690;8.952;2024-03-23T17:13:11;4.50;99.90
9107;DHT22;4589;48.690;8.952;2024-03-23T17:15:44;4.50;99.90
9107;DHT22;4589;48.690;8.952;2024-03-23T17:20:36;4.40;99.90
9107;DHT22;4589;48.690;8.952;2024-03-23T17:23:01;4.40;99.90
9107;DHT22;4589;48.690;8.952;2024-03-23T17:25:27;4.40;99.90
9107;DHT22;4589;48.690;8.952;2024-03-23T17:27:53;4.50;99.90
9107;DHT22;4589;48.690;8.952;2024-03-23T17:30:18;4.60;99.90
9107;DHT22;4589;48.690;8.952;2024-03-23T17:32:44;4.60;99.90
9107;DHT22;4589;48.690;8.952;2024-03-23T17:35:13;4.50;99.90
9107;DHT22;4589;48.690;8.952;2024-03-23T17:37:40;4.20;99.90
9107;DHT22;4589;48.690;8.952;2024-03-23T17:40:07;4.00;99.90
9107;DHT22;4589;48.690;8.952;2024-03-23T17:42:34;3.70;99.90
9107;DHT22;4589;48.690;8.952;2024-03-23T17:54:44;3.30;99.90
9107;DHT22;4589;48.690;8.952;2024-03-23T17:59:36;3.20;99.90
9107;DHT22;4589;48.690;8.952;2024-03-23T18:02:01;3.10;99.90
9107;DHT22;4589;48.690;8.952;2024-03-23T18:04:27;3.00;99.90
9107;DHT22;4589;48.690;8.952;2024-03-23T18:06:53;2.90;99.90
9107;DHT22;4589;48.690;8.952;2024-03-23T18:23:56;2.70;99.90
9107;DHT22;4589;48.690;8.952;2024-03-23T18:28:49;2.70;99.90
9107;DHT22;4589;48.690;8.952;2024-03-23T18:31:16;2.70;99.90
9107;DHT22;4589;48.690;8.952;2024-03-23T18:33:43;2.70;99.90
9107;DHT22;4589;48.690;8.952;2024-03-23T18:38:36;2.60;99.90
9107;DHT22;4589;48.690;8.952;2024-03-23T18:43:28;2.60;99.90
9107;DHT22;4589;48.690;8.952;2024-03-23T18:45:54;2.50;99.90
9107;DHT22;4589;48.690;8.952;2024-03-23T18:53:12;2.40;99.90
9107;DHT22;4589;48.690;8.952;2024-03-23T18:55:50;2.40;99.90
9107;DHT22;4589;48.690;8.952;2024-03-23T19:05:33;2.30;99.90
9107;DHT22;4589;48.690;8.952;2024-03-23T19:08:00;2.40;99.90
9107;DHT22;4589;48.690;8.952;2024-03-23T19:10:25;2.30;99.90
9107;DHT22;4589;48.690;8.952;2024-03-23T19:12:51;2.40;99.90
9107;DHT22;4589;48.690;8.952;2024-03-23T19:15:17;2.40;99.90
9107;DHT22;4589;48.690;8.952;2024-03-23T19:20:09;2.30;99.90
9107;DHT22;4589;48.690;8.952;2024-03-23T19:22:35;2.30;99.90
9107;DHT22;4589;48.690;8.952;2024-03-23T19:27:28;2.20;99.90
9107;DHT22;4589;48.690;8.952;2024-03-23T19:29:53;2.20;99.90
9107;DHT22;4589;48.690;8.952;2024-03-23T19:35:41;2.10;99.90
9107;DHT22;4589;48.690;8.952;2024-03-23T19:40:33;2.00;99.90
9107;DHT22;4589;48.690;8.952;2024-03-23T19:42:59;2.00;99.90
9107;DHT22;4589;48.690;8.952;2024-03-23T19:45:24;2.00;99.90
9107;DHT22;4589;48.690;8.952;2024-03-23T19:47:50;1.90;99.90
9107;DHT22;4589;48.690;8.952;2024-03-23T19:50:15;1.90;99.90
9107;DHT22;4589;48.690;8.952;2024-03-23T19:52:41;1.90;99.90
9107;DHT22;4589;48.690;8.952;2024-03-23T19:55:07;1.80;99.90
9107;DHT22;4589;48.690;8.952;2024-03-23T19:57:32;1.70;99.90
9107;DHT22;4589;48.690;8.952;2024-03-23T19:59:58;1.70;99.90